sensor_id;sensor_type;location;lat;lon;timestamp;temperature;humidity
18260;DHT22;9256;52.236;5.712;2023-06-01T00:01:29;10.90;99.90
18260;DHT22;9256;52.236;5.712;2023-06-01T00:03:59;11.20;99.90
18260;DHT22;9256;52.236;5.712;2023-06-01T00:06:27;11.00;99.90
18260;DHT22;9256;52.236;5.712;2023-06-01T00:08:56;11.00;99.90
18260;DHT22;9256;52.236;5.712;2023-06-01T00:11:23;10.90;99.90
18260;DHT22;9256;52.236;5.712;2023-06-01T00:13:51;10.90;99.90
18260;DHT22;9256;52.236;5.712;2023-06-01T00:16:18;10.90;99.90
18260;DHT22;9256;52.236;5.712;2023-06-01T00:18:46;10.80;99.90
18260;DHT22;9256;52.236;5.712;2023-06-01T00:21:12;10.90;99.90
18260;DHT22;9256;52.236;5.712;2023-06-01T00:23:41;11.00;99.90
18260;DHT22;9256;52.236;5.712;2023-06-01T00:26:08;10.90;99.90
18260;DHT22;9256;52.236;5.712;2023-06-01T00:28:35;11.00;99.90
18260;DHT22;9256;52.236;5.712;2023-06-01T00:31:02;11.00;99.90
18260;DHT22;9256;52.236;5.712;2023-06-01T00:33:29;10.90;99.90
18260;DHT22;9256;52.236;5.712;2023-06-01T00:35:56;11.00;99.90
18260;DHT22;9256;52.236;5.712;2023-06-01T00:38:23;11.00;99.90
18260;DHT22;9256;52.236;5.712;2023-06-01T00:40:51;10.90;99.90
18260;DHT22;9256;52.236;5.712;2023-06-01T00:43:19;10.90;99.90
18260;DHT22;9256;52.236;5.712;2023-06-01T00:45:46;11.00;99.90
18260;DHT22;9256;52.236;5.712;2023-06-01T00:48:13;11.00;99.90
18260;DHT22;9256;52.236;5.712;2023-06-01T00:50:41;11.00;99.90
18260;DHT22;9256;52.236;5.712;2023-06-01T00:53:12;10.90;99.90
18260;DHT22;9256;52.236;5.712;2023-06-01T00:55:42;11.00;99.90
18260;DHT22;9256;52.236;5.712;2023-06-01T00:58:11;10.90;99.90
18260;DHT22;9256;52.236;5.712;2023-06-01T01:00:39;10.90;99.90
18260;DHT22;9256;52.236;5.712;2023-06-01T01:03:06;10.80;99.90
18260;DHT22;9256;52.236;5.712;2023-06-01T01:05:35;10.90;99.90
18260;DHT22;9256;52.236;5.712;2023-06-01T01:08:09;10.90;99.90
18260;DHT22;9256;52.236;5.712;2023-06-01T01:10:43;10.90;99.90
18260;DHT22;9256;52.236;5.712;2023-06-01T01:13:16;10.80;99.90
18260;DHT22;9256;52.236;5.712;2023-06-01T01:15:51;10.80;99.90
18260;DHT22;9256;52.236;5.712;2023-06-01T01:18:36;10.70;99.90
18260;DHT22;9256;52.236;5.712;2023-06-01T01:21:07;10.70;99.90
18260;DHT22;9256;52.236;5.712;2023-06-01T01:24:21;10.70;99.90
18260;DHT22;9256;52.236;5.712;2023-06-01T01:27:01;10.60;99.90
18260;DHT22;9256;52.236;5.712;2023-06-01T01:29:33;10.70;99.90
18260;DHT22;9256;52.236;5.712;2023-06-01T01:32:02;10.80;99.90
18260;DHT22;9256;52.236;5.712;2023-06-01T01:34:30;10.80;99.90
18260;DHT22;9256;52.236;5.712;2023-06-01T01:36:58;10.80;99.90
18260;DHT22;9256;52.236;5.712;2023-06-01T01:39:25;10.80;99.90
18260;DHT22;9256;52.236;5.712;2023-06-01T01:41:52;10.70;99.90
18260;DHT22;9256;52.236;5.712;2023-06-01T01:44:19;10.80;99.90
18260;DHT22;9256;52.236;5.712;2023-06-01T01:46:52;10.90;99.90
18260;DHT22;9256;52.236;5.712;2023-06-01T01:49:27;10.80;99.90
18260;DHT22;9256;52.236;5.712;2023-06-01T01:52:00;10.70;99.90
18260;DHT22;9256;52.236;5.712;2023-06-01T01:54:29;10.70;99.90
18260;DHT22;9256;52.236;5.712;2023-06-01T01:56:57;10.60;99.90
18260;DHT22;9256;52.236;5.712;2023-06-01T01:59:26;10.60;99.90
18260;DHT22;9256;52.236;5.712;2023-06-01T02:01:55;10.70;99.90
18260;DHT22;9256;52.236;5.712;2023-06-01T02:04:22;10.60;99.90
18260;DHT22;9256;52.236;5.712;2023-06-01T02:06:49;10.70;99.90
18260;DHT22;9256;52.236;5.712;2023-06-01T02:09:16;10.60;99.90
18260;DHT22;9256;52.236;5.712;2023-06-01T02:11:43;10.60;99.90
18260;DHT22;9256;52.236;5.712;2023-06-01T02:14:10;10.70;99.90
18260;DHT22;9256;52.236;5.712;2023-06-01T02:16:37;10.70;99.90
18260;DHT22;9256;52.236;5.712;2023-06-01T02:19:05;10.60;99.90
18260;DHT22;9256;52.236;5.712;2023-06-01T02:21:36;10.50;99.90
18260;DHT22;9256;52.236;5.712;2023-06-01T02:24:03;10.60;99.90
18260;DHT22;9256;52.236;5.712;2023-06-01T02:26:32;10.60;99.90
18260;DHT22;9256;52.236;5.712;2023-06-01T02:28:59;10.60;99.90
18260;DHT22;9256;52.236;5.712;2023-06-01T02:31:30;10.60;99.90
18260;DHT22;9256;52.236;5.712;2023-06-01T02:33:57;10.70;99.90
18260;DHT22;9256;52.236;5.712;2023-06-01T02:36:25;10.70;99.90
18260;DHT22;9256;52.236;5.712;2023-06-01T02:38:54;10.70;99.90
18260;DHT22;9256;52.236;5.712;2023-06-01T02:41:21;10.70;99.90
18260;DHT22;9256;52.236;5.712;2023-06-01T02:43:48;10.60;99.90
18260;DHT22;9256;52.236;5.712;2023-06-01T02:46:16;10.60;99.90
18260;DHT22;9256;52.236;5.712;2023-06-01T02:48:43;10.70;99.90
18260;DHT22;9256;52.236;5.712;2023-06-01T02:51:10;10.80;99.90
18260;DHT22;9256;52.236;5.712;2023-06-01T02:53:40;10.70;99.90
18260;DHT22;9256;52.236;5.712;2023-06-01T02:56:07;10.70;99.90
18260;DHT22;9256;52.236;5.712;2023-06-01T02:58:34;10.70;99.90
18260;DHT22;9256;52.236;5.712;2023-06-01T03:01:02;10.70;99.90
18260;DHT22;9256;52.236;5.712;2023-06-01T03:03:29;10.70;99.90
18260;DHT22;9256;52.236;5.712;2023-06-01T03:05:56;10.60;99.90
18260;DHT22;9256;52.236;5.712;2023-06-01T03:08:23;10.60;99.90
18260;DHT22;9256;52.236;5.712;2023-06-01T03:10:52;10.50;99.90
18260;DHT22;9256;52.236;5.712;2023-06-01T03:13:20;10.50;99.90
18260;DHT22;9256;52.236;5.712;2023-06-01T03:15:46;10.50;99.90
18260;DHT22;9256;52.236;5.712;2023-06-01T03:18:14;10.50;99.90
18260;DHT22;9256;52.236;5.712;2023-06-01T03:20:41;10.60;99.90
18260;DHT22;9256;52.236;5.712;2023-06-01T03:23:08;10.50;99.90
18260;DHT22;9256;52.236;5.712;2023-06-01T03:25:35;10.50;99.90
18260;DHT22;9256;52.236;5.712;2023-06-01T03:28:03;10.50;99.90
18260;DHT22;9256;52.236;5.712;2023-06-01T03:30:31;10.60;99.90
18260;DHT22;9256;52.236;5.712;2023-06-01T03:32:58;10.50;99.90
18260;DHT22;9256;52.236;5.712;2023-06-01T03:35:25;10.40;99.90
18260;DHT22;9256;52.236;5.712;2023-06-01T03:37:52;10.40;99.90
18260;DHT22;9256;52.236;5.712;2023-06-01T03:40:18;10.40;99.90
18260;DHT22;9256;52.236;5.712;2023-06-01T03:42:47;10.50;99.90
18260;DHT22;9256;52.236;5.712;2023-06-01T03:45:16;10.60;99.90
18260;DHT22;9256;52.236;5.712;2023-06-01T03:47:43;10.50;99.90
18260;DHT22;9256;52.236;5.712;2023-06-01T03:50:10;10.50;99.90
18260;DHT22;9256;52.236;5.712;2023-06-01T03:52:37;10.50;99.90
18260;DHT22;9256;52.236;5.712;2023-06-01T03:55:06;10.60;99.90
18260;DHT22;9256;52.236;5.712;2023-06-01T03:57:36;10.70;99.90
18260;DHT22;9256;52.236;5.712;2023-06-01T04:00:04;10.70;99.90
18260;DHT22;9256;52.236;5.712;2023-06-01T04:02:46;10.80;99.90
18260;DHT22;9256;52.236;5.712;2023-06-01T04:05:14;10.70;99.90
18260;DHT22;9256;52.236;5.712;2023-06-01T04:07:43;10.70;99.90
18260;DHT22;9256;52.236;5.712;2023-06-01T04:10:11;10.70;99.90
18260;DHT22;9256;52.236;5.712;2023-06-01T04:12:39;10.80;99.90
18260;DHT22;9256;52.236;5.712;2023-06-01T04:15:08;10.80;99.90
18260;DHT22;9256;52.236;5.712;2023-06-01T04:17:36;10.80;99.90
18260;DHT22;9256;52.236;5.712;2023-06-01T04:20:05;10.70;99.90
18260;DHT22;9256;52.236;5.712;2023-06-01T04:22:32;10.80;99.90
18260;DHT22;9256;52.236;5.712;2023-06-01T04:24:59;10.80;99.90
18260;DHT22;9256;52.236;5.712;2023-06-01T04:27:26;10.80;99.90
18260;DHT22;9256;52.236;5.712;2023-06-01T04:29:54;10.80;99.90
18260;DHT22;9256;52.236;5.712;2023-06-01T04:32:24;10.70;99.90
18260;DHT22;9256;52.236;5.712;2023-06-01T04:34:53;10.90;99.90
18260;DHT22;9256;52.236;5.712;2023-06-01T04:37:25;10.90;99.90
18260;DHT22;9256;52.236;5.712;2023-06-01T04:39:51;10.90;99.90
18260;DHT22;9256;52.236;5.712;2023-06-01T04:42:20;10.90;99.90
18260;DHT22;9256;52.236;5.712;2023-06-01T04:44:47;10.90;99.90
18260;DHT22;9256;52.236;5.712;2023-06-01T04:47:15;10.80;99.90
18260;DHT22;9256;52.236;5.712;2023-06-01T04:49:43;10.80;99.90
18260;DHT22;9256;52.236;5.712;2023-06-01T04:52:10;10.60;99.90
18260;DHT22;9256;52.236;5.712;2023-06-01T04:54:39;10.70;99.90
18260;DHT22;9256;52.236;5.712;2023-06-01T04:57:06;10.90;99.90
18260;DHT22;9256;52.236;5.712;2023-06-01T04:59:33;10.80;99.90
18260;DHT22;9256;52.236;5.712;2023-06-01T05:02:00;10.80;99.90
18260;DHT22;9256;52.236;5.712;2023-06-01T05:04:27;10.80;99.90
18260;DHT22;9256;52.236;5.712;2023-06-01T05:06:54;10.90;99.90
18260;DHT22;9256;52.236;5.712;2023-06-01T05:09:21;10.90;99.90
18260;DHT22;9256;52.236;5.712;2023-06-01T05:11:49;10.80;99.90
18260;DHT22;9256;52.236;5.712;2023-06-01T05:14:16;10.80;99.90
18260;DHT22;9256;52.236;5.712;2023-06-01T05:16:43;10.90;99.90
18260;DHT22;9256;52.236;5.712;2023-06-01T05:19:10;10.90;99.90
18260;DHT22;9256;52.236;5.712;2023-06-01T05:21:38;11.00;99.90
18260;DHT22;9256;52.236;5.712;2023-06-01T05:24:06;11.00;99.90
18260;DHT22;9256;52.236;5.712;2023-06-01T05:26:33;11.00;99.90
18260;DHT22;9256;52.236;5.712;2023-06-01T05:29:02;11.10;99.90
18260;DHT22;9256;52.236;5.712;2023-06-01T05:31:29;11.00;99.90
18260;DHT22;9256;52.236;5.712;2023-06-01T05:33:56;11.10;99.90
18260;DHT22;9256;52.236;5.712;2023-06-01T05:36:23;11.30;99.90
18260;DHT22;9256;52.236;5.712;2023-06-01T05:38:50;11.40;99.90
18260;DHT22;9256;52.236;5.712;2023-06-01T05:41:17;11.20;99.90
18260;DHT22;9256;52.236;5.712;2023-06-01T05:43:44;11.10;99.90
18260;DHT22;9256;52.236;5.712;2023-06-01T05:46:12;11.10;99.90
18260;DHT22;9256;52.236;5.712;2023-06-01T05:48:39;11.10;99.90
18260;DHT22;9256;52.236;5.712;2023-06-01T05:51:06;11.40;99.90
18260;DHT22;9256;52.236;5.712;2023-06-01T05:53:33;11.50;99.90
18260;DHT22;9256;52.236;5.712;2023-06-01T05:56:00;11.40;99.90
18260;DHT22;9256;52.236;5.712;2023-06-01T05:58:26;11.40;99.90
18260;DHT22;9256;52.236;5.712;2023-06-01T06:00:53;11.60;99.90
18260;DHT22;9256;52.236;5.712;2023-06-01T06:03:23;11.80;99.90
18260;DHT22;9256;52.236;5.712;2023-06-01T06:05:50;12.00;99.90
18260;DHT22;9256;52.236;5.712;2023-06-01T06:08:17;12.00;99.90
18260;DHT22;9256;52.236;5.712;2023-06-01T06:10:44;12.10;99.90
18260;DHT22;9256;52.236;5.712;2023-06-01T06:13:11;12.00;99.90
18260;DHT22;9256;52.236;5.712;2023-06-01T06:15:38;11.80;99.90
18260;DHT22;9256;52.236;5.712;2023-06-01T06:18:05;11.70;99.90
18260;DHT22;9256;52.236;5.712;2023-06-01T06:20:33;11.80;99.90
18260;DHT22;9256;52.236;5.712;2023-06-01T06:23:00;11.90;99.90
18260;DHT22;9256;52.236;5.712;2023-06-01T06:25:27;12.00;99.90
18260;DHT22;9256;52.236;5.712;2023-06-01T06:27:54;12.20;99.90
18260;DHT22;9256;52.236;5.712;2023-06-01T06:30:21;12.10;99.90
18260;DHT22;9256;52.236;5.712;2023-06-01T06:32:50;12.20;99.90
18260;DHT22;9256;52.236;5.712;2023-06-01T06:35:17;12.40;99.90
18260;DHT22;9256;52.236;5.712;2023-06-01T06:37:45;12.60;99.90
18260;DHT22;9256;52.236;5.712;2023-06-01T06:40:12;12.80;99.90
18260;DHT22;9256;52.236;5.712;2023-06-01T06:42:40;12.70;99.90
18260;DHT22;9256;52.236;5.712;2023-06-01T06:45:08;12.50;99.90
18260;DHT22;9256;52.236;5.712;2023-06-01T06:47:34;12.30;99.90
18260;DHT22;9256;52.236;5.712;2023-06-01T06:50:01;12.40;99.90
18260;DHT22;9256;52.236;5.712;2023-06-01T06:52:28;12.40;99.90
18260;DHT22;9256;52.236;5.712;2023-06-01T06:54:57;12.50;99.90
18260;DHT22;9256;52.236;5.712;2023-06-01T06:57:24;12.40;99.90
18260;DHT22;9256;52.236;5.712;2023-06-01T06:59:51;12.30;99.90
18260;DHT22;9256;52.236;5.712;2023-06-01T07:02:18;12.40;99.90
18260;DHT22;9256;52.236;5.712;2023-06-01T07:04:44;12.60;99.90
18260;DHT22;9256;52.236;5.712;2023-06-01T07:07:12;12.50;99.90
18260;DHT22;9256;52.236;5.712;2023-06-01T07:09:39;12.80;99.90
18260;DHT22;9256;52.236;5.712;2023-06-01T07:12:08;12.60;99.90
18260;DHT22;9256;52.236;5.712;2023-06-01T07:14:35;12.60;99.90
18260;DHT22;9256;52.236;5.712;2023-06-01T07:17:02;12.80;99.90
18260;DHT22;9256;52.236;5.712;2023-06-01T07:19:28;12.70;99.90
18260;DHT22;9256;52.236;5.712;2023-06-01T07:21:58;12.80;99.90
18260;DHT22;9256;52.236;5.712;2023-06-01T07:24:25;12.90;99.90
18260;DHT22;9256;52.236;5.712;2023-06-01T07:26:53;13.00;99.90
18260;DHT22;9256;52.236;5.712;2023-06-01T07:29:22;12.90;99.90
18260;DHT22;9256;52.236;5.712;2023-06-01T07:31:50;13.30;99.90
18260;DHT22;9256;52.236;5.712;2023-06-01T07:34:18;13.60;99.90
18260;DHT22;9256;52.236;5.712;2023-06-01T07:36:46;13.50;99.90
18260;DHT22;9256;52.236;5.712;2023-06-01T07:39:13;13.60;99.90
18260;DHT22;9256;52.236;5.712;2023-06-01T07:41:40;13.80;99.90
18260;DHT22;9256;52.236;5.712;2023-06-01T07:44:08;13.70;99.90
18260;DHT22;9256;52.236;5.712;2023-06-01T07:46:36;13.50;99.90
18260;DHT22;9256;52.236;5.712;2023-06-01T07:49:03;13.50;99.90
18260;DHT22;9256;52.236;5.712;2023-06-01T07:51:30;13.60;99.90
18260;DHT22;9256;52.236;5.712;2023-06-01T07:53:57;13.40;99.90
18260;DHT22;9256;52.236;5.712;2023-06-01T07:56:25;13.30;99.90
18260;DHT22;9256;52.236;5.712;2023-06-01T07:58:54;13.50;99.90
18260;DHT22;9256;52.236;5.712;2023-06-01T08:01:21;13.50;99.90
18260;DHT22;9256;52.236;5.712;2023-06-01T08:03:49;13.80;99.90
18260;DHT22;9256;52.236;5.712;2023-06-01T08:06:17;14.20;99.90
18260;DHT22;9256;52.236;5.712;2023-06-01T08:08:44;14.40;99.90
18260;DHT22;9256;52.236;5.712;2023-06-01T08:11:14;14.70;99.90
18260;DHT22;9256;52.236;5.712;2023-06-01T08:13:41;14.50;99.90
18260;DHT22;9256;52.236;5.712;2023-06-01T08:16:11;14.30;99.90
18260;DHT22;9256;52.236;5.712;2023-06-01T08:18:39;14.20;99.90
18260;DHT22;9256;52.236;5.712;2023-06-01T08:21:07;14.70;99.90
18260;DHT22;9256;52.236;5.712;2023-06-01T08:23:35;14.80;99.90
18260;DHT22;9256;52.236;5.712;2023-06-01T08:26:02;15.10;99.90
18260;DHT22;9256;52.236;5.712;2023-06-01T08:28:29;15.40;99.90
18260;DHT22;9256;52.236;5.712;2023-06-01T08:30:57;15.40;99.90
18260;DHT22;9256;52.236;5.712;2023-06-01T08:33:25;15.10;99.90
18260;DHT22;9256;52.236;5.712;2023-06-01T08:35:51;15.20;99.90
18260;DHT22;9256;52.236;5.712;2023-06-01T08:38:20;15.10;99.90
18260;DHT22;9256;52.236;5.712;2023-06-01T08:40:47;15.20;99.90
18260;DHT22;9256;52.236;5.712;2023-06-01T08:43:19;14.70;99.90
18260;DHT22;9256;52.236;5.712;2023-06-01T08:45:46;14.80;99.90
18260;DHT22;9256;52.236;5.712;2023-06-01T08:48:16;15.30;99.90
18260;DHT22;9256;52.236;5.712;2023-06-01T08:50:44;15.60;99.90
18260;DHT22;9256;52.236;5.712;2023-06-01T08:53:14;15.90;99.90
18260;DHT22;9256;52.236;5.712;2023-06-01T08:55:45;16.50;99.90
18260;DHT22;9256;52.236;5.712;2023-06-01T08:58:12;16.60;99.90
18260;DHT22;9256;52.236;5.712;2023-06-01T09:00:40;16.50;99.90
18260;DHT22;9256;52.236;5.712;2023-06-01T09:03:07;16.00;99.90
18260;DHT22;9256;52.236;5.712;2023-06-01T09:05:35;16.10;99.90
18260;DHT22;9256;52.236;5.712;2023-06-01T09:08:02;16.30;99.90
18260;DHT22;9256;52.236;5.712;2023-06-01T09:10:30;15.70;99.90
18260;DHT22;9256;52.236;5.712;2023-06-01T09:12:58;15.80;99.90
18260;DHT22;9256;52.236;5.712;2023-06-01T09:15:26;15.80;99.90
18260;DHT22;9256;52.236;5.712;2023-06-01T09:18:04;16.10;99.90
18260;DHT22;9256;52.236;5.712;2023-06-01T09:20:32;16.10;99.90
18260;DHT22;9256;52.236;5.712;2023-06-01T09:22:59;16.20;99.90
18260;DHT22;9256;52.236;5.712;2023-06-01T09:25:27;16.40;99.90
18260;DHT22;9256;52.236;5.712;2023-06-01T09:27:56;16.30;99.90
18260;DHT22;9256;52.236;5.712;2023-06-01T09:30:26;16.20;99.90
18260;DHT22;9256;52.236;5.712;2023-06-01T09:33:07;16.30;99.90
18260;DHT22;9256;52.236;5.712;2023-06-01T09:35:41;16.40;99.90
18260;DHT22;9256;52.236;5.712;2023-06-01T09:38:09;17.30;99.90
18260;DHT22;9256;52.236;5.712;2023-06-01T09:40:37;17.30;99.90
18260;DHT22;9256;52.236;5.712;2023-06-01T09:43:18;17.00;99.90
18260;DHT22;9256;52.236;5.712;2023-06-01T09:46:03;16.80;99.90
18260;DHT22;9256;52.236;5.712;2023-06-01T09:48:30;16.80;99.90
18260;DHT22;9256;52.236;5.712;2023-06-01T09:50:57;16.80;99.90
18260;DHT22;9256;52.236;5.712;2023-06-01T09:53:24;16.80;99.90
18260;DHT22;9256;52.236;5.712;2023-06-01T09:55:59;17.00;99.90
18260;DHT22;9256;52.236;5.712;2023-06-01T09:58:26;17.20;99.90
18260;DHT22;9256;52.236;5.712;2023-06-01T10:00:54;17.20;99.90
18260;DHT22;9256;52.236;5.712;2023-06-01T10:03:22;17.40;99.90
18260;DHT22;9256;52.236;5.712;2023-06-01T10:05:49;17.10;99.90
18260;DHT22;9256;52.236;5.712;2023-06-01T10:08:17;17.50;99.90
18260;DHT22;9256;52.236;5.712;2023-06-01T10:10:46;17.50;99.90
18260;DHT22;9256;52.236;5.712;2023-06-01T10:13:14;17.10;99.90
18260;DHT22;9256;52.236;5.712;2023-06-01T10:15:41;16.80;99.90
18260;DHT22;9256;52.236;5.712;2023-06-01T10:18:09;16.80;99.90
18260;DHT22;9256;52.236;5.712;2023-06-01T10:20:37;17.20;99.90
18260;DHT22;9256;52.236;5.712;2023-06-01T10:23:05;17.70;99.90
18260;DHT22;9256;52.236;5.712;2023-06-01T10:25:38;17.50;99.90
18260;DHT22;9256;52.236;5.712;2023-06-01T10:28:10;18.00;99.90
18260;DHT22;9256;52.236;5.712;2023-06-01T10:30:37;18.30;99.90
18260;DHT22;9256;52.236;5.712;2023-06-01T10:33:05;17.40;99.90
18260;DHT22;9256;52.236;5.712;2023-06-01T10:36:04;17.60;99.90
18260;DHT22;9256;52.236;5.712;2023-06-01T10:38:31;17.70;99.90
18260;DHT22;9256;52.236;5.712;2023-06-01T10:41:29;17.90;99.90
18260;DHT22;9256;52.236;5.712;2023-06-01T10:43:56;18.30;99.90
18260;DHT22;9256;52.236;5.712;2023-06-01T10:46:40;18.70;99.90
18260;DHT22;9256;52.236;5.712;2023-06-01T10:49:07;18.40;99.90
18260;DHT22;9256;52.236;5.712;2023-06-01T10:51:35;18.10;99.90
18260;DHT22;9256;52.236;5.712;2023-06-01T10:54:26;18.00;99.90
18260;DHT22;9256;52.236;5.712;2023-06-01T10:57:18;18.10;99.90
18260;DHT22;9256;52.236;5.712;2023-06-01T11:00:13;18.50;99.90
18260;DHT22;9256;52.236;5.712;2023-06-01T11:02:52;17.90;99.90
18260;DHT22;9256;52.236;5.712;2023-06-01T11:05:50;18.20;99.90
18260;DHT22;9256;52.236;5.712;2023-06-01T11:08:54;18.20;99.90
18260;DHT22;9256;52.236;5.712;2023-06-01T11:11:21;18.80;99.90
18260;DHT22;9256;52.236;5.712;2023-06-01T11:14:11;19.30;99.90
18260;DHT22;9256;52.236;5.712;2023-06-01T11:16:39;19.30;99.90
18260;DHT22;9256;52.236;5.712;2023-06-01T11:19:06;19.10;99.90
18260;DHT22;9256;52.236;5.712;2023-06-01T11:21:37;18.50;99.90
18260;DHT22;9256;52.236;5.712;2023-06-01T11:24:08;18.70;99.90
18260;DHT22;9256;52.236;5.712;2023-06-01T11:26:40;18.80;99.90
18260;DHT22;9256;52.236;5.712;2023-06-01T11:29:12;19.10;99.90
18260;DHT22;9256;52.236;5.712;2023-06-01T11:31:43;18.80;99.90
18260;DHT22;9256;52.236;5.712;2023-06-01T11:34:11;18.90;99.90
18260;DHT22;9256;52.236;5.712;2023-06-01T11:36:43;18.90;99.90
18260;DHT22;9256;52.236;5.712;2023-06-01T11:39:22;19.70;99.90
18260;DHT22;9256;52.236;5.712;2023-06-01T11:41:51;19.40;99.90
18260;DHT22;9256;52.236;5.712;2023-06-01T11:44:19;18.60;99.90
18260;DHT22;9256;52.236;5.712;2023-06-01T11:46:53;18.90;99.90
18260;DHT22;9256;52.236;5.712;2023-06-01T11:49:21;19.00;99.90
18260;DHT22;9256;52.236;5.712;2023-06-01T11:51:48;19.10;99.90
18260;DHT22;9256;52.236;5.712;2023-06-01T11:54:22;19.20;99.90
18260;DHT22;9256;52.236;5.712;2023-06-01T11:56:49;19.40;99.90
18260;DHT22;9256;52.236;5.712;2023-06-01T11:59:17;19.50;99.90
18260;DHT22;9256;52.236;5.712;2023-06-01T12:01:46;19.70;99.90
18260;DHT22;9256;52.236;5.712;2023-06-01T12:04:13;19.10;99.90
18260;DHT22;9256;52.236;5.712;2023-06-01T12:06:40;19.50;99.90
18260;DHT22;9256;52.236;5.712;2023-06-01T12:09:09;20.10;99.90
18260;DHT22;9256;52.236;5.712;2023-06-01T12:11:37;19.70;99.90
18260;DHT22;9256;52.236;5.712;2023-06-01T12:14:05;18.80;99.90
18260;DHT22;9256;52.236;5.712;2023-06-01T12:16:51;18.50;99.90
18260;DHT22;9256;52.236;5.712;2023-06-01T12:19:18;19.50;99.90
18260;DHT22;9256;52.236;5.712;2023-06-01T12:21:47;19.20;99.90
18260;DHT22;9256;52.236;5.712;2023-06-01T12:24:16;18.90;99.90
18260;DHT22;9256;52.236;5.712;2023-06-01T12:26:44;18.50;99.90
18260;DHT22;9256;52.236;5.712;2023-06-01T12:29:11;18.10;99.90
18260;DHT22;9256;52.236;5.712;2023-06-01T12:31:38;17.90;99.90
18260;DHT22;9256;52.236;5.712;2023-06-01T12:34:15;17.40;99.90
18260;DHT22;9256;52.236;5.712;2023-06-01T12:36:43;17.00;99.90
18260;DHT22;9256;52.236;5.712;2023-06-01T12:39:10;16.90;99.90
18260;DHT22;9256;52.236;5.712;2023-06-01T12:41:48;16.60;99.90
18260;DHT22;9256;52.236;5.712;2023-06-01T12:44:19;16.40;99.90
18260;DHT22;9256;52.236;5.712;2023-06-01T12:46:46;16.70;99.90
18260;DHT22;9256;52.236;5.712;2023-06-01T12:49:14;16.40;99.90
18260;DHT22;9256;52.236;5.712;2023-06-01T12:51:43;16.40;99.90
18260;DHT22;9256;52.236;5.712;2023-06-01T12:54:10;16.50;99.90
18260;DHT22;9256;52.236;5.712;2023-06-01T12:56:37;16.00;99.90
18260;DHT22;9256;52.236;5.712;2023-06-01T12:59:05;16.40;99.90
18260;DHT22;9256;52.236;5.712;2023-06-01T13:01:33;16.10;99.90
18260;DHT22;9256;52.236;5.712;2023-06-01T13:04:00;16.20;99.90
18260;DHT22;9256;52.236;5.712;2023-06-01T13:06:29;16.50;99.90
18260;DHT22;9256;52.236;5.712;2023-06-01T13:08:56;16.90;99.90
18260;DHT22;9256;52.236;5.712;2023-06-01T13:11:23;16.90;99.90
18260;DHT22;9256;52.236;5.712;2023-06-01T13:13:50;16.50;99.90
18260;DHT22;9256;52.236;5.712;2023-06-01T13:16:18;16.40;99.90
18260;DHT22;9256;52.236;5.712;2023-06-01T13:18:45;16.20;99.90
18260;DHT22;9256;52.236;5.712;2023-06-01T13:21:13;16.20;99.90
18260;DHT22;9256;52.236;5.712;2023-06-01T13:23:41;16.30;99.90
18260;DHT22;9256;52.236;5.712;2023-06-01T13:26:09;16.20;99.90
18260;DHT22;9256;52.236;5.712;2023-06-01T13:28:36;16.30;99.90
18260;DHT22;9256;52.236;5.712;2023-06-01T13:31:03;16.20;99.90
18260;DHT22;9256;52.236;5.712;2023-06-01T13:33:32;16.60;99.90
18260;DHT22;9256;52.236;5.712;2023-06-01T13:35:58;16.40;99.90
18260;DHT22;9256;52.236;5.712;2023-06-01T13:38:25;16.00;99.90
18260;DHT22;9256;52.236;5.712;2023-06-01T13:40:53;15.90;99.90
18260;DHT22;9256;52.236;5.712;2023-06-01T13:43:20;15.70;99.90
18260;DHT22;9256;52.236;5.712;2023-06-01T13:45:47;16.20;99.90
18260;DHT22;9256;52.236;5.712;2023-06-01T13:48:13;16.10;99.90
18260;DHT22;9256;52.236;5.712;2023-06-01T13:50:42;16.00;99.90
18260;DHT22;9256;52.236;5.712;2023-06-01T13:53:09;16.00;99.90
18260;DHT22;9256;52.236;5.712;2023-06-01T13:55:36;15.90;99.90
18260;DHT22;9256;52.236;5.712;2023-06-01T13:58:04;15.80;99.90
18260;DHT22;9256;52.236;5.712;2023-06-01T14:00:31;16.00;99.90
18260;DHT22;9256;52.236;5.712;2023-06-01T14:02:58;16.00;99.90
18260;DHT22;9256;52.236;5.712;2023-06-01T14:05:25;16.10;99.90
18260;DHT22;9256;52.236;5.712;2023-06-01T14:07:54;15.80;99.90
18260;DHT22;9256;52.236;5.712;2023-06-01T14:10:21;16.10;99.90
18260;DHT22;9256;52.236;5.712;2023-06-01T14:12:48;15.90;99.90
18260;DHT22;9256;52.236;5.712;2023-06-01T14:15:15;16.00;99.90
18260;DHT22;9256;52.236;5.712;2023-06-01T14:17:42;15.70;99.90
18260;DHT22;9256;52.236;5.712;2023-06-01T14:20:10;15.70;99.90
18260;DHT22;9256;52.236;5.712;2023-06-01T14:22:36;15.70;99.90
18260;DHT22;9256;52.236;5.712;2023-06-01T14:25:06;15.70;99.90
18260;DHT22;9256;52.236;5.712;2023-06-01T14:27:33;15.60;99.90
18260;DHT22;9256;52.236;5.712;2023-06-01T14:30:02;15.40;99.90
18260;DHT22;9256;52.236;5.712;2023-06-01T14:32:29;15.50;99.90
18260;DHT22;9256;52.236;5.712;2023-06-01T14:34:56;15.50;99.90
18260;DHT22;9256;52.236;5.712;2023-06-01T14:37:23;15.60;99.90
18260;DHT22;9256;52.236;5.712;2023-06-01T14:39:50;15.60;99.90
18260;DHT22;9256;52.236;5.712;2023-06-01T14:42:19;15.70;99.90
18260;DHT22;9256;52.236;5.712;2023-06-01T14:44:46;15.50;99.90
18260;DHT22;9256;52.236;5.712;2023-06-01T14:47:12;15.50;99.90
18260;DHT22;9256;52.236;5.712;2023-06-01T14:49:39;15.60;99.90
18260;DHT22;9256;52.236;5.712;2023-06-01T14:52:07;15.70;99.90
18260;DHT22;9256;52.236;5.712;2023-06-01T14:54:33;15.60;99.90
18260;DHT22;9256;52.236;5.712;2023-06-01T14:57:00;15.60;99.90
18260;DHT22;9256;52.236;5.712;2023-06-01T14:59:29;15.50;99.90
18260;DHT22;9256;52.236;5.712;2023-06-01T15:01:56;15.50;99.90
18260;DHT22;9256;52.236;5.712;2023-06-01T15:04:23;15.60;99.90
18260;DHT22;9256;52.236;5.712;2023-06-01T15:06:50;15.80;99.90
18260;DHT22;9256;52.236;5.712;2023-06-01T15:09:17;15.70;99.90
18260;DHT22;9256;52.236;5.712;2023-06-01T15:11:44;15.50;99.90
18260;DHT22;9256;52.236;5.712;2023-06-01T15:14:11;15.70;99.90
18260;DHT22;9256;52.236;5.712;2023-06-01T15:16:40;15.80;99.90
18260;DHT22;9256;52.236;5.712;2023-06-01T15:19:07;15.80;99.90
18260;DHT22;9256;52.236;5.712;2023-06-01T15:21:34;15.80;99.90
18260;DHT22;9256;52.236;5.712;2023-06-01T15:24:01;15.80;99.90
18260;DHT22;9256;52.236;5.712;2023-06-01T15:26:28;15.50;99.90
18260;DHT22;9256;52.236;5.712;2023-06-01T15:28:55;15.30;99.90
18260;DHT22;9256;52.236;5.712;2023-06-01T15:31:22;15.70;99.90
18260;DHT22;9256;52.236;5.712;2023-06-01T15:33:50;15.70;99.90
18260;DHT22;9256;52.236;5.712;2023-06-01T15:36:17;15.90;99.90
18260;DHT22;9256;52.236;5.712;2023-06-01T15:38:44;15.90;99.90
18260;DHT22;9256;52.236;5.712;2023-06-01T15:41:11;15.90;99.90
18260;DHT22;9256;52.236;5.712;2023-06-01T15:43:38;15.80;99.90
18260;DHT22;9256;52.236;5.712;2023-06-01T15:46:05;15.80;99.90
18260;DHT22;9256;52.236;5.712;2023-06-01T15:48:32;16.20;99.90
18260;DHT22;9256;52.236;5.712;2023-06-01T15:51:00;16.20;99.90
18260;DHT22;9256;52.236;5.712;2023-06-01T15:53:27;16.70;99.90
18260;DHT22;9256;52.236;5.712;2023-06-01T15:55:54;16.30;99.90